Time;durP1;ratioP1;P1;durP2;ratioP2;P2;SDS_P1;SDS_P2;PMS_P1;PMS_P2;Temp;Humidity;BMP_temperature;BMP_pressure;BME280_temperature;BME280_humidity;BME280_pressure;Samples;Min_cycle;Max_cycle;Signal;HPM_P1;HPM_P2
2023/04/24 00:00:19;;;;;;;;;;;;;;;;;;5044481;28;19921;-61
2023/04/24 00:02:46;;;;;;;;;;;;;;;;;;5048292;28;19920;-60
2023/04/24 00:05:13;;;;;;;;;;;;;;;;;;5050004;28;19920;-60
2023/04/24 00:07:40;;;;;;;;;;;;;;;;;;5047683;28;19932;-61
2023/04/24 00:10:07;;;;;;;;;;;;;;;;;;5048447;28;20375;-61
2023/04/24 00:12:34;;;;;;;;;;;;;;;;;;5051911;28;19948;-61
2023/04/24 00:15:01;;;;;;;;;;;;;;;;;;5046824;28;19925;-61
2023/04/24 00:17:28;;;;;;;;;;;;;;;;;;5045322;28;19921;-61
2023/04/24 00:19:58;;;;;;;;;;;;;;;;;;5043995;28;20022;-61
2023/04/24 00:22:25;;;;;;;;;;;;;;;;;;5045919;28;19920;-60
2023/04/24 00:24:51;;;;;;;;;;;;;;;;;;5046191;28;19924;-61
2023/04/24 00:27:18;;;;;;;;;;;;;;;;;;5035272;28;19920;-61
2023/04/24 00:29:45;;;;;;;;;;;;;;;;;;5035382;28;19924;-61
2023/04/24 00:32:12;;;;;;;;;;;;;;;;;;5036005;28;20347;-62
2023/04/24 00:34:39;;;;;;;;;;;;;;;;;;5055280;28;20367;-61
2023/04/24 00:37:05;;;;;;;;;;;;;;;;;;5043566;28;19921;-61
2023/04/24 00:39:32;;;;;;;;;;;;;;;;;;5035207;28;19951;-61
2023/04/24 00:42:01;;;;;;;;;;;;;;;;;;5035124;28;19925;-61
2023/04/24 00:44:28;;;;;;;;;;;;;;;;;;5035453;28;19921;-61
2023/04/24 00:46:55;;;;;;;;;;;;;;;;;;5038016;28;19925;-61
2023/04/24 00:49:22;;;;;;;;;;;;;;;;;;5034498;28;20303;-63
2023/04/24 00:51:49;;;;;;;;;;;;;;;;;;5042105;28;20378;-61
2023/04/24 00:54:16;;;;;;;;;;;;;;;;;;5045640;28;19921;-61
2023/04/24 00:56:42;;;;;;;;;;;;;;;;;;5043424;28;19971;-61
2023/04/24 00:59:09;;;;;;;;;;;;;;;;;;5044834;28;20314;-61
2023/04/24 01:01:36;;;;;;;;;;;;;;;;;;5045584;28;20432;-61
2023/04/24 01:04:03;;;;;;;;;;;;;;;;;;5055558;28;19921;-61
2023/04/24 01:06:31;;;;;;;;;;;;;;;;;;5047561;28;19920;-61
2023/04/24 01:08:57;;;;;;;;;;;;;;;;;;5043463;28;19924;-61
2023/04/24 01:11:24;;;;;;;;;;;;;;;;;;5044652;28;19947;-61
2023/04/24 01:13:51;;;;;;;;;;;;;;;;;;5045900;28;20295;-61
2023/04/24 01:16:20;;;;;;;;;;;;;;;;;;5043217;28;19944;-61
2023/04/24 01:18:47;;;;;;;;;;;;;;;;;;5043214;28;19974;-61
2023/04/24 01:21:14;;;;;;;;;;;;;;;;;;5034360;28;19925;-61
2023/04/24 01:23:41;;;;;;;;;;;;;;;;;;5034542;28;19990;-61
2023/04/24 01:26:08;;;;;;;;;;;;;;;;;;5034150;28;20330;-61
2023/04/24 01:28:34;;;;;;;;;;;;;;;;;;5034077;28;19925;-60
2023/04/24 01:31:01;;;;;;;;;;;;;;;;;;5034144;28;19921;-61
2023/04/24 01:33:28;;;;;;;;;;;;;;;;;;5050567;28;19981;-61
2023/04/24 01:35:55;;;;;;;;;;;;;;;;;;5044743;28;19929;-61
2023/04/24 01:38:22;;;;;;;;;;;;;;;;;;5045171;28;19924;-61
2023/04/24 01:40:49;;;;;;;;;;;;;;;;;;5047443;28;19921;-61
2023/04/24 01:43:15;;;;;;;;;;;;;;;;;;5042912;28;19991;-61
2023/04/24 01:45:42;;;;;;;;;;;;;;;;;;5034240;28;20513;-61
2023/04/24 01:48:09;;;;;;;;;;;;;;;;;;5033247;28;19925;-61
2023/04/24 01:50:36;;;;;;;;;;;;;;;;;;5045231;28;20375;-62
2023/04/24 01:53:03;;;;;;;;;;;;;;;;;;5048027;28;19921;-60
2023/04/24 01:55:30;;;;;;;;;;;;;;;;;;5046043;28;19921;-61
2023/04/24 01:57:56;;;;;;;;;;;;;;;;;;5042297;28;19921;-61
2023/04/24 02:00:24;;;;;;;;;;;;;;;;;;5042941;28;19970;-61
2023/04/24 02:02:51;;;;;;;;;;;;;;;;;;5048065;28;19956;-61
2023/04/24 02:05:17;;;;;;;;;;;;;;;;;;5050291;28;19925;-61
2023/04/24 02:07:44;;;;;;;;;;;;;;;;;;5044533;28;19990;-61
2023/04/24 02:10:11;;;;;;;;;;;;;;;;;;5044645;28;19921;-61
2023/04/24 02:12:38;;;;;;;;;;;;;;;;;;5043903;28;19924;-61
2023/04/24 02:15:06;;;;;;;;;;;;;;;;;;5041756;28;19925;-61
2023/04/24 02:17:33;;;;;;;;;;;;;;;;;;5043252;28;20020;-61
2023/04/24 02:20:00;;;;;;;;;;;;;;;;;;5044897;28;19974;-61
2023/04/24 02:22:26;;;;;;;;;;;;;;;;;;5042837;28;19928;-61
2023/04/24 02:24:53;;;;;;;;;;;;;;;;;;5042969;28;19921;-61
2023/04/24 02:27:20;;;;;;;;;;;;;;;;;;5045011;28;19920;-61
2023/04/24 02:29:47;;;;;;;;;;;;;;;;;;5043431;28;19990;-61
2023/04/24 02:32:15;;;;;;;;;;;;;;;;;;5043799;28;20372;-63
2023/04/24 02:34:42;;;;;;;;;;;;;;;;;;5054968;28;19971;-62
2023/04/24 02:37:08;;;;;;;;;;;;;;;;;;5041975;28;19921;-63
2023/04/24 02:39:35;;;;;;;;;;;;;;;;;;5044139;28;19928;-63
2023/04/24 02:42:02;;;;;;;;;;;;;;;;;;5040101;28;20359;-63
2023/04/24 02:44:29;;;;;;;;;;;;;;;;;;5043907;28;19924;-63
2023/04/24 02:46:56;;;;;;;;;;;;;;;;;;5042002;28;20346;-63
2023/04/24 02:49:23;;;;;;;;;;;;;;;;;;5041645;28;20379;-63
2023/04/24 02:51:50;;;;;;;;;;;;;;;;;;5043961;28;20448;-63
2023/04/24 02:54:17;;;;;;;;;;;;;;;;;;5042772;28;20367;-62
2023/04/24 02:56:43;;;;;;;;;;;;;;;;;;5040966;28;19921;-63
2023/04/24 02:59:11;;;;;;;;;;;;;;;;;;5043308;28;19921;-63
2023/04/24 03:01:37;;;;;;;;;;;;;;;;;;5043158;28;19921;-63
2023/04/24 03:04:04;;;;;;;;;;;;;;;;;;5053192;28;19920;-63
2023/04/24 03:06:32;;;;;;;;;;;;;;;;;;5043855;28;19975;-61
2023/04/24 03:08:59;;;;;;;;;;;;;;;;;;5043399;28;20015;-63
2023/04/24 03:11:26;;;;;;;;;;;;;;;;;;5041771;28;20398;-63
2023/04/24 03:13:53;;;;;;;;;;;;;;;;;;5041156;28;19921;-63
2023/04/24 03:16:20;;;;;;;;;;;;;;;;;;5032427;28;19972;-63
2023/04/24 03:18:47;;;;;;;;;;;;;;;;;;5032226;28;19951;-63
2023/04/24 03:21:14;;;;;;;;;;;;;;;;;;5032455;28;19921;-63
2023/04/24 03:23:40;;;;;;;;;;;;;;;;;;5032223;28;19921;-63
2023/04/24 03:26:08;;;;;;;;;;;;;;;;;;5031608;28;19971;-63
2023/04/24 03:28:34;;;;;;;;;;;;;;;;;;5041052;28;19921;-63
2023/04/24 03:31:01;;;;;;;;;;;;;;;;;;5041930;28;20327;-63
2023/04/24 03:33:28;;;;;;;;;;;;;;;;;;5050737;28;20465;-62
2023/04/24 03:35:55;;;;;;;;;;;;;;;;;;5042927;28;20384;-63
2023/04/24 03:38:22;;;;;;;;;;;;;;;;;;5041217;28;19921;-63
2023/04/24 03:40:49;;;;;;;;;;;;;;;;;;5043669;28;19925;-63
2023/04/24 03:43:15;;;;;;;;;;;;;;;;;;5045165;28;19978;-63
2023/04/24 03:45:42;;;;;;;;;;;;;;;;;;5040806;28;19921;-63
2023/04/24 03:48:09;;;;;;;;;;;;;;;;;;5042391;28;19921;-63
2023/04/24 03:50:36;;;;;;;;;;;;;;;;;;5042977;28;19925;-63
2023/04/24 03:53:03;;;;;;;;;;;;;;;;;;5040906;28;19925;-63
2023/04/24 03:55:30;;;;;;;;;;;;;;;;;;5041329;28;20463;-62
2023/04/24 03:57:57;;;;;;;;;;;;;;;;;;5042773;28;19966;-63
2023/04/24 04:00:24;;;;;;;;;;;;;;;;;;5041421;28;19921;-63
2023/04/24 04:02:51;;;;;;;;;;;;;;;;;;5046398;28;19920;-64
2023/04/24 04:05:18;;;;;;;;;;;;;;;;;;5044599;28;19983;-63
2023/04/24 04:07:44;;;;;;;;;;;;;;;;;;5041155;28;19967;-63
2023/04/24 04:10:11;;;;;;;;;;;;;;;;;;5043216;28;19921;-63
2023/04/24 04:12:38;;;;;;;;;;;;;;;;;;5041924;28;19975;-62
2023/04/24 04:15:05;;;;;;;;;;;;;;;;;;5040549;28;19921;-63
2023/04/24 04:17:33;;;;;;;;;;;;;;;;;;5042540;28;19920;-63
2023/04/24 04:19:59;;;;;;;;;;;;;;;;;;5042205;28;19928;-63
2023/04/24 04:22:26;;;;;;;;;;;;;;;;;;5040473;28;19921;-63
2023/04/24 04:24:53;;;;;;;;;;;;;;;;;;5041881;28;19920;-63
2023/04/24 04:27:21;;;;;;;;;;;;;;;;;;5042754;28;19966;-62
2023/04/24 04:29:48;;;;;;;;;;;;;;;;;;5041096;28;20296;-63
2023/04/24 04:32:15;;;;;;;;;;;;;;;;;;5042746;28;19928;-62
2023/04/24 04:34:42;;;;;;;;;;;;;;;;;;5048768;28;19927;-62
2023/04/24 04:37:10;;;;;;;;;;;;;;;;;;5041183;28;20295;-64
2023/04/24 04:39:37;;;;;;;;;;;;;;;;;;5046431;28;19920;-63
2023/04/24 04:42:04;;;;;;;;;;;;;;;;;;5045176;28;19920;-63
2023/04/24 04:44:31;;;;;;;;;;;;;;;;;;5056268;28;20333;-62
2023/04/24 04:46:59;;;;;;;;;;;;;;;;;;5049770;28;20379;-62
2023/04/24 04:49:28;;;;;;;;;;;;;;;;;;5049691;28;19924;-62
2023/04/24 04:51:55;;;;;;;;;;;;;;;;;;5046003;28;19927;-62
2023/04/24 04:54:22;;;;;;;;;;;;;;;;;;5044776;28;19921;-62
2023/04/24 04:56:48;;;;;;;;;;;;;;;;;;5042860;28;19975;-62
2023/04/24 04:59:15;;;;;;;;;;;;;;;;;;5045829;28;19924;-63
2023/04/24 05:01:42;;;;;;;;;;;;;;;;;;5045510;28;19921;-63
2023/04/24 05:04:09;;;;;;;;;;;;;;;;;;5051117;28;19944;-63
2023/04/24 05:06:36;;;;;;;;;;;;;;;;;;5048766;28;20410;-63
2023/04/24 05:09:03;;;;;;;;;;;;;;;;;;5043142;28;19921;-63
2023/04/24 05:11:30;;;;;;;;;;;;;;;;;;5045535;28;19927;-64
2023/04/24 05:13:57;;;;;;;;;;;;;;;;;;5046651;28;19979;-61
2023/04/24 05:16:24;;;;;;;;;;;;;;;;;;5041782;28;19920;-59
2023/04/24 05:18:51;;;;;;;;;;;;;;;;;;5049147;28;19982;-58
2023/04/24 05:21:18;;;;;;;;;;;;;;;;;;5046894;28;19968;-58
2023/04/24 05:23:45;;;;;;;;;;;;;;;;;;5045682;28;19920;-59
2023/04/24 05:26:11;;;;;;;;;;;;;;;;;;5045255;28;19921;-59
2023/04/24 05:28:38;;;;;;;;;;;;;;;;;;5042699;28;19923;-60
2023/04/24 05:31:06;;;;;;;;;;;;;;;;;;5048734;28;19998;-64
2023/04/24 05:33:33;;;;;;;;;;;;;;;;;;5043948;28;19952;-62
2023/04/24 05:35:59;;;;;;;;;;;;;;;;;;5043198;28;20441;-65
2023/04/24 05:38:26;;;;;;;;;;;;;;;;;;5045235;28;19925;-64
2023/04/24 05:40:53;;;;;;;;;;;;;;;;;;5042981;28;19921;-63
2023/04/24 05:43:20;;;;;;;;;;;;;;;;;;5048776;28;19971;-63
2023/04/24 05:45:47;;;;;;;;;;;;;;;;;;5044979;28;19929;-62
2023/04/24 05:48:14;;;;;;;;;;;;;;;;;;5042197;28;19921;-62
2023/04/24 05:50:41;;;;;;;;;;;;;;;;;;5045093;28;19925;-62
2023/04/24 05:53:07;;;;;;;;;;;;;;;;;;5044523;28;19924;-62
2023/04/24 05:55:35;;;;;;;;;;;;;;;;;;5045573;28;19986;-62
2023/04/24 05:58:02;;;;;;;;;;;;;;;;;;5044387;28;19999;-62
2023/04/24 06:00:29;;;;;;;;;;;;;;;;;;5046181;28;20007;-62
2023/04/24 06:02:56;;;;;;;;;;;;;;;;;;5044385;28;19939;-61
2023/04/24 06:05:23;;;;;;;;;;;;;;;;;;5049360;28;19928;-62
2023/04/24 06:07:49;;;;;;;;;;;;;;;;;;5042691;28;20384;-62
2023/04/24 06:10:16;;;;;;;;;;;;;;;;;;5052089;28;19920;-62
2023/04/24 06:12:43;;;;;;;;;;;;;;;;;;5052727;28;19921;-64
2023/04/24 06:15:10;;;;;;;;;;;;;;;;;;5052652;28;19967;-60
2023/04/24 06:17:37;;;;;;;;;;;;;;;;;;5055472;28;19924;-61
2023/04/24 06:20:05;;;;;;;;;;;;;;;;;;5042143;28;19921;-63
2023/04/24 06:22:32;;;;;;;;;;;;;;;;;;5043084;28;19951;-64
2023/04/24 06:24:59;;;;;;;;;;;;;;;;;;5042296;28;19967;-61
2023/04/24 06:27:26;;;;;;;;;;;;;;;;;;5040987;28;19929;-61
2023/04/24 06:29:54;;;;;;;;;;;;;;;;;;5043395;28;19920;-62
2023/04/24 06:32:21;;;;;;;;;;;;;;;;;;5047333;28;19928;-59
2023/04/24 06:34:48;;;;;;;;;;;;;;;;;;5046595;28;19987;-62
2023/04/24 06:37:16;;;;;;;;;;;;;;;;;;5042306;28;20371;-62
2023/04/24 06:39:42;;;;;;;;;;;;;;;;;;5040460;28;19967;-62
2023/04/24 06:42:09;;;;;;;;;;;;;;;;;;5042541;28;19920;-62
2023/04/24 06:44:40;;;;;;;;;;;;;;;;;;5042604;28;19921;-63
2023/04/24 06:47:07;;;;;;;;;;;;;;;;;;5051428;28;19920;-61
2023/04/24 06:49:34;;;;;;;;;;;;;;;;;;5042503;28;19920;-60
2023/04/24 06:52:01;;;;;;;;;;;;;;;;;;5040566;28;20008;-59
2023/04/24 06:54:28;;;;;;;;;;;;;;;;;;5041804;28;19928;-60
2023/04/24 06:56:55;;;;;;;;;;;;;;;;;;5042691;28;19921;-60
2023/04/24 06:59:22;;;;;;;;;;;;;;;;;;5041416;28;19928;-61
2023/04/24 07:01:48;;;;;;;;;;;;;;;;;;5039642;28;19975;-59
2023/04/24 07:04:15;;;;;;;;;;;;;;;;;;5044550;28;19975;-60
2023/04/24 07:06:42;;;;;;;;;;;;;;;;;;5046042;28;19925;-60
2023/04/24 07:09:09;;;;;;;;;;;;;;;;;;5041128;28;19941;-61
2023/04/24 07:11:37;;;;;;;;;;;;;;;;;;5042171;28;19920;-61
2023/04/24 07:14:04;;;;;;;;;;;;;;;;;;5043793;28;19974;-64
2023/04/24 07:16:31;;;;;;;;;;;;;;;;;;5051680;28;19970;-62
2023/04/24 07:18:58;;;;;;;;;;;;;;;;;;5040985;28;19924;-62
2023/04/24 07:21:25;;;;;;;;;;;;;;;;;;5042502;28;19967;-61
2023/04/24 07:23:52;;;;;;;;;;;;;;;;;;5043113;28;19928;-62
2023/04/24 07:26:19;;;;;;;;;;;;;;;;;;5041451;28;19991;-61
2023/04/24 07:28:46;;;;;;;;;;;;;;;;;;5048808;28;20361;-61
2023/04/24 07:31:12;;;;;;;;;;;;;;;;;;5050449;28;20561;-62
2023/04/24 07:33:39;;;;;;;;;;;;;;;;;;5050423;28;19921;-63
2023/04/24 07:36:06;;;;;;;;;;;;;;;;;;5043027;28;19928;-61
2023/04/24 07:38:33;;;;;;;;;;;;;;;;;;5042556;28;19928;-62
2023/04/24 07:41:00;;;;;;;;;;;;;;;;;;5040114;28;19967;-61
2023/04/24 07:43:27;;;;;;;;;;;;;;;;;;5040825;28;19971;-60
2023/04/24 07:45:54;;;;;;;;;;;;;;;;;;5042057;28;19921;-60
2023/04/24 07:48:21;;;;;;;;;;;;;;;;;;5041140;28;19972;-60
2023/04/24 07:50:48;;;;;;;;;;;;;;;;;;5046323;28;19924;-61
2023/04/24 07:53:15;;;;;;;;;;;;;;;;;;5051223;28;20375;-62
2023/04/24 07:55:42;;;;;;;;;;;;;;;;;;5052331;28;19975;-63
2023/04/24 07:58:09;;;;;;;;;;;;;;;;;;5039412;28;19924;-62
2023/04/24 08:00:36;;;;;;;;;;;;;;;;;;5052883;28;19920;-62
2023/04/24 08:03:03;;;;;;;;;;;;;;;;;;5046286;28;19920;-61
2023/04/24 08:05:30;;;;;;;;;;;;;;;;;;5049706;28;19921;-62
2023/04/24 08:07:56;;;;;;;;;;;;;;;;;;5039474;28;20384;-63
2023/04/24 08:10:23;;;;;;;;;;;;;;;;;;5044400;28;19943;-65
2023/04/24 08:12:50;;;;;;;;;;;;;;;;;;5043505;28;20307;-64
2023/04/24 08:15:17;;;;;;;;;;;;;;;;;;5043500;28;19975;-65
2023/04/24 08:17:44;;;;;;;;;;;;;;;;;;5045813;28;20272;-64
2023/04/24 08:20:13;;;;;;;;;;;;;;;;;;5045126;28;20559;-64
2023/04/24 08:22:40;;;;;;;;;;;;;;;;;;5050934;28;19932;-64
2023/04/24 08:25:07;;;;;;;;;;;;;;;;;;5050833;28;20379;-62
2023/04/24 08:27:33;;;;;;;;;;;;;;;;;;5045780;28;19921;-62
2023/04/24 08:30:00;;;;;;;;;;;;;;;;;;5042549;28;19979;-62
2023/04/24 08:32:28;;;;;;;;;;;;;;;;;;5056494;28;19975;-63
2023/04/24 08:34:56;;;;;;;;;;;;;;;;;;5059433;28;19925;-66
2023/04/24 08:37:23;;;;;;;;;;;;;;;;;;5045919;28;19921;-62
2023/04/24 08:39:50;;;;;;;;;;;;;;;;;;5043511;28;19924;-63
2023/04/24 08:42:16;;;;;;;;;;;;;;;;;;5044045;28;19970;-62
2023/04/24 08:44:43;;;;;;;;;;;;;;;;;;5045183;28;19947;-63
2023/04/24 08:47:10;;;;;;;;;;;;;;;;;;5042929;28;19920;-63
2023/04/24 08:49:37;;;;;;;;;;;;;;;;;;5043604;28;19920;-65
2023/04/24 08:52:04;;;;;;;;;;;;;;;;;;5044856;28;19920;-63
2023/04/24 08:54:31;;;;;;;;;;;;;;;;;;5050581;28;20307;-65
2023/04/24 08:56:58;;;;;;;;;;;;;;;;;;5050407;28;19924;-64
2023/04/24 08:59:25;;;;;;;;;;;;;;;;;;5042497;28;19983;-64
2023/04/24 09:01:51;;;;;;;;;;;;;;;;;;5058549;28;20062;-61
2023/04/24 09:04:19;;;;;;;;;;;;;;;;;;5047885;28;19921;-63
2023/04/24 09:06:46;;;;;;;;;;;;;;;;;;5045495;28;19927;-63
2023/04/24 09:09:13;;;;;;;;;;;;;;;;;;5046827;28;19936;-62
2023/04/24 09:11:40;;;;;;;;;;;;;;;;;;5047760;28;19928;-61
2023/04/24 09:14:07;;;;;;;;;;;;;;;;;;5048525;28;19925;-61
2023/04/24 09:16:34;;;;;;;;;;;;;;;;;;5053454;28;20024;-62
2023/04/24 09:19:01;;;;;;;;;;;;;;;;;;5046523;28;19921;-62
2023/04/24 09:21:27;;;;;;;;;;;;;;;;;;5044875;28;19927;-64
2023/04/24 09:23:54;;;;;;;;;;;;;;;;;;5041877;28;19975;-63
2023/04/24 09:26:21;;;;;;;;;;;;;;;;;;5041688;28;19920;-62
2023/04/24 09:28:48;;;;;;;;;;;;;;;;;;5042273;28;19925;-62
2023/04/24 09:31:17;;;;;;;;;;;;;;;;;;5043085;28;19924;-62
2023/04/24 09:33:44;;;;;;;;;;;;;;;;;;5051192;28;19984;-63
2023/04/24 09:36:11;;;;;;;;;;;;;;;;;;5054543;28;19980;-63
2023/04/24 09:38:38;;;;;;;;;;;;;;;;;;5048792;28;19921;-62
2023/04/24 09:41:05;;;;;;;;;;;;;;;;;;5047618;28;19990;-62
2023/04/24 09:43:32;;;;;;;;;;;;;;;;;;5043552;28;19925;-63
2023/04/24 09:45:59;;;;;;;;;;;;;;;;;;5041620;28;19920;-64
2023/04/24 09:48:26;;;;;;;;;;;;;;;;;;5043062;28;20405;-62
2023/04/24 09:50:52;;;;;;;;;;;;;;;;;;5054196;28;20394;-63
2023/04/24 09:53:19;;;;;;;;;;;;;;;;;;5049714;28;19921;-63
2023/04/24 09:55:48;;;;;;;;;;;;;;;;;;5056286;28;19924;-64
2023/04/24 09:58:15;;;;;;;;;;;;;;;;;;5041389;28;19920;-63
2023/04/24 10:00:42;;;;;;;;;;;;;;;;;;5048235;28;19921;-62
2023/04/24 10:03:08;;;;;;;;;;;;;;;;;;5043543;28;19971;-63
2023/04/24 10:05:35;;;;;;;;;;;;;;;;;;5046939;28;20341;-64
2023/04/24 10:08:02;;;;;;;;;;;;;;;;;;5041320;28;19921;-63
2023/04/24 10:10:29;;;;;;;;;;;;;;;;;;5044105;28;19924;-64
2023/04/24 10:12:56;;;;;;;;;;;;;;;;;;5043276;28;19928;-62
2023/04/24 10:15:23;;;;;;;;;;;;;;;;;;5053806;28;20015;-61
2023/04/24 10:17:52;;;;;;;;;;;;;;;;;;5043185;28;19920;-62
2023/04/24 10:20:19;;;;;;;;;;;;;;;;;;5043344;28;20003;-62
2023/04/24 10:22:45;;;;;;;;;;;;;;;;;;5048959;28;19924;-63
2023/04/24 10:25:12;;;;;;;;;;;;;;;;;;5051126;28;19921;-62
2023/04/24 10:27:39;;;;;;;;;;;;;;;;;;5043244;28;19924;-63
2023/04/24 10:30:06;;;;;;;;;;;;;;;;;;5042263;28;19921;-61
2023/04/24 10:32:33;;;;;;;;;;;;;;;;;;5047409;28;20517;-63
2023/04/24 10:35:00;;;;;;;;;;;;;;;;;;5048884;28;20341;-63
2023/04/24 10:37:27;;;;;;;;;;;;;;;;;;5042140;28;20322;-64
2023/04/24 10:39:54;;;;;;;;;;;;;;;;;;5040710;28;19947;-64
2023/04/24 10:42:21;;;;;;;;;;;;;;;;;;5046699;28;19979;-62
2023/04/24 10:44:48;;;;;;;;;;;;;;;;;;5052534;28;19967;-64
2023/04/24 10:47:15;;;;;;;;;;;;;;;;;;5048075;28;19924;-61
2023/04/24 10:49:42;;;;;;;;;;;;;;;;;;5041924;28;19920;-63
2023/04/24 10:52:09;;;;;;;;;;;;;;;;;;5051522;28;19986;-65
2023/04/24 10:54:35;;;;;;;;;;;;;;;;;;5042997;28;19932;-64
2023/04/24 10:57:02;;;;;;;;;;;;;;;;;;5043081;28;19920;-63
2023/04/24 10:59:29;;;;;;;;;;;;;;;;;;5043849;28;20036;-63
2023/04/24 11:01:56;;;;;;;;;;;;;;;;;;5041108;28;19999;-63
2023/04/24 11:04:25;;;;;;;;;;;;;;;;;;5052259;28;21364;-63
2023/04/24 11:06:52;;;;;;;;;;;;;;;;;;5041381;28;19975;-64
2023/04/24 11:09:18;;;;;;;;;;;;;;;;;;5043808;28;20395;-63
2023/04/24 11:11:45;;;;;;;;;;;;;;;;;;5046594;28;19978;-65
2023/04/24 11:14:12;;;;;;;;;;;;;;;;;;5040264;28;19975;-65
2023/04/24 11:16:39;;;;;;;;;;;;;;;;;;5041978;28;19925;-62
2023/04/24 11:19:06;;;;;;;;;;;;;;;;;;5043082;28;19932;-62
2023/04/24 11:21:33;;;;;;;;;;;;;;;;;;5042457;28;19929;-62
2023/04/24 11:24:00;;;;;;;;;;;;;;;;;;5046962;28;19924;-66
2023/04/24 11:26:32;;;;;;;;;;;;;;;;;;5051490;28;19924;-64
2023/04/24 11:28:59;;;;;;;;;;;;;;;;;;5045154;28;19925;-65
2023/04/24 11:31:26;;;;;;;;;;;;;;;;;;5045772;28;20355;-65
2023/04/24 11:33:52;;;;;;;;;;;;;;;;;;5048830;28;20399;-65
2023/04/24 11:36:19;;;;;;;;;;;;;;;;;;5044298;28;19925;-65
2023/04/24 11:38:46;;;;;;;;;;;;;;;;;;5042195;28;19924;-65
2023/04/24 11:41:13;;;;;;;;;;;;;;;;;;5042795;28;19925;-64
2023/04/24 11:43:40;;;;;;;;;;;;;;;;;;5049783;28;19925;-64
2023/04/24 11:46:07;;;;;;;;;;;;;;;;;;5044536;28;20438;-64
2023/04/24 11:48:36;;;;;;;;;;;;;;;;;;5049016;28;19955;-65
2023/04/24 11:51:02;;;;;;;;;;;;;;;;;;5048826;28;19925;-65
2023/04/24 11:53:29;;;;;;;;;;;;;;;;;;5054828;28;20059;-62
2023/04/24 11:55:56;;;;;;;;;;;;;;;;;;5045925;28;19971;-64
2023/04/24 11:58:23;;;;;;;;;;;;;;;;;;5044460;28;19984;-62
2023/04/24 12:00:50;;;;;;;;;;;;;;;;;;5046149;28;20356;-64
2023/04/24 12:03:17;;;;;;;;;;;;;;;;;;5053186;28;20329;-63
2023/04/24 12:05:44;;;;;;;;;;;;;;;;;;5057646;28;20447;-63
2023/04/24 12:08:11;;;;;;;;;;;;;;;;;;5046812;28;19951;-63
2023/04/24 12:10:38;;;;;;;;;;;;;;;;;;5047050;28;20296;-63
2023/04/24 12:13:05;;;;;;;;;;;;;;;;;;5039153;28;19925;-66
2023/04/24 12:15:32;;;;;;;;;;;;;;;;;;5045427;28;19933;-65
2023/04/24 12:17:59;;;;;;;;;;;;;;;;;;5039617;28;19925;-63
2023/04/24 12:20:26;;;;;;;;;;;;;;;;;;5045392;28;20522;-62
2023/04/24 12:22:54;;;;;;;;;;;;;;;;;;5037151;28;19981;-63
2023/04/24 12:25:20;;;;;;;;;;;;;;;;;;5057322;28;19987;-62
2023/04/24 12:27:47;;;;;;;;;;;;;;;;;;5042516;28;19925;-63
2023/04/24 12:30:14;;;;;;;;;;;;;;;;;;5041953;28;20280;-63
2023/04/24 12:32:41;;;;;;;;;;;;;;;;;;5045805;28;19925;-64
2023/04/24 12:35:08;;;;;;;;;;;;;;;;;;5053135;28;19929;-63
2023/04/24 12:37:36;;;;;;;;;;;;;;;;;;5048376;28;19925;-62
2023/04/24 12:40:03;;;;;;;;;;;;;;;;;;5041551;28;20400;-62
2023/04/24 12:42:30;;;;;;;;;;;;;;;;;;5046553;28;19932;-62
2023/04/24 12:44:57;;;;;;;;;;;;;;;;;;5056150;28;19986;-62
2023/04/24 12:47:23;;;;;;;;;;;;;;;;;;5049044;28;19929;-63
2023/04/24 12:49:52;;;;;;;;;;;;;;;;;;5041603;28;19987;-62
2023/04/24 12:52:19;;;;;;;;;;;;;;;;;;5038480;28;20020;-61
2023/04/24 12:54:46;;;;;;;;;;;;;;;;;;5043795;28;20422;-62
2023/04/24 12:57:13;;;;;;;;;;;;;;;;;;5045982;28;19928;-63
2023/04/24 12:59:41;;;;;;;;;;;;;;;;;;5043033;28;19925;-61
2023/04/24 13:02:08;;;;;;;;;;;;;;;;;;5044781;28;19924;-63
2023/04/24 13:04:35;;;;;;;;;;;;;;;;;;5054837;28;20011;-62
2023/04/24 13:07:02;;;;;;;;;;;;;;;;;;5043952;28;19948;-60
2023/04/24 13:09:29;;;;;;;;;;;;;;;;;;5045058;28;20066;-61
2023/04/24 13:11:56;;;;;;;;;;;;;;;;;;5048304;28;19932;-61
2023/04/24 13:14:23;;;;;;;;;;;;;;;;;;5044324;28;19928;-60
2023/04/24 13:16:50;;;;;;;;;;;;;;;;;;5047134;28;19925;-60
2023/04/24 13:19:17;;;;;;;;;;;;;;;;;;5057385;28;19925;-62
2023/04/24 13:21:43;;;;;;;;;;;;;;;;;;5055463;28;19932;-61
2023/04/24 13:24:10;;;;;;;;;;;;;;;;;;5055336;28;19928;-61
2023/04/24 13:26:37;;;;;;;;;;;;;;;;;;5055155;28;19924;-62
2023/04/24 13:29:04;;;;;;;;;;;;;;;;;;5050204;28;19928;-61
2023/04/24 13:31:31;;;;;;;;;;;;;;;;;;5044889;28;19933;-61
2023/04/24 13:33:58;;;;;;;;;;;;;;;;;;5050287;28;19931;-61
2023/04/24 13:36:25;;;;;;;;;;;;;;;;;;5050309;28;19929;-61
2023/04/24 13:38:52;;;;;;;;;;;;;;;;;;5053926;28;20398;-61
2023/04/24 13:41:18;;;;;;;;;;;;;;;;;;5051039;28;19929;-62
2023/04/24 13:43:45;;;;;;;;;;;;;;;;;;5053509;28;19986;-62
2023/04/24 13:46:12;;;;;;;;;;;;;;;;;;5053807;28;19979;-63
2023/04/24 13:48:39;;;;;;;;;;;;;;;;;;5053483;28;19955;-63
2023/04/24 13:51:06;;;;;;;;;;;;;;;;;;5052655;28;19924;-63
2023/04/24 13:53:35;;;;;;;;;;;;;;;;;;5048776;28;19936;-63
2023/04/24 13:56:02;;;;;;;;;;;;;;;;;;5050423;28;20016;-63
2023/04/24 13:58:29;;;;;;;;;;;;;;;;;;5054666;28;19935;-63
2023/04/24 14:00:56;;;;;;;;;;;;;;;;;;5049563;28;19983;-63
2023/04/24 14:03:23;;;;;;;;;;;;;;;;;;5052933;28;19932;-63
2023/04/24 14:05:50;;;;;;;;;;;;;;;;;;5051786;28;19928;-62
2023/04/24 14:08:17;;;;;;;;;;;;;;;;;;5046476;28;20264;-62
2023/04/24 14:10:43;;;;;;;;;;;;;;;;;;5046342;28;20328;-63
2023/04/24 14:13:10;;;;;;;;;;;;;;;;;;5049368;28;19924;-62
2023/04/24 14:15:37;;;;;;;;;;;;;;;;;;5050855;28;19934;-62
2023/04/24 14:18:04;;;;;;;;;;;;;;;;;;5048547;28;19924;-62
2023/04/24 14:20:31;;;;;;;;;;;;;;;;;;5046745;28;19932;-62
2023/04/24 14:22:58;;;;;;;;;;;;;;;;;;5052187;28;20434;-62
2023/04/24 14:25:26;;;;;;;;;;;;;;;;;;5053248;28;20369;-64
2023/04/24 14:27:53;;;;;;;;;;;;;;;;;;5046936;28;19928;-64
2023/04/24 14:30:20;;;;;;;;;;;;;;;;;;5048745;28;19950;-63
2023/04/24 14:32:47;;;;;;;;;;;;;;;;;;5047207;28;20452;-64
2023/04/24 14:35:14;;;;;;;;;;;;;;;;;;5048328;28;19929;-63
2023/04/24 14:37:42;;;;;;;;;;;;;;;;;;5042244;28;19951;-64
2023/04/24 14:40:09;;;;;;;;;;;;;;;;;;5049474;28;20472;-64
2023/04/24 14:42:36;;;;;;;;;;;;;;;;;;5042342;28;19936;-65
2023/04/24 14:45:03;;;;;;;;;;;;;;;;;;5047554;28;20384;-64
2023/04/24 14:47:30;;;;;;;;;;;;;;;;;;5049112;28;19925;-64
2023/04/24 14:49:56;;;;;;;;;;;;;;;;;;5052794;28;19964;-64
2023/04/24 14:52:23;;;;;;;;;;;;;;;;;;5048214;28;19933;-64
2023/04/24 14:54:50;;;;;;;;;;;;;;;;;;5050998;28;20292;-64
2023/04/24 14:57:17;;;;;;;;;;;;;;;;;;5042215;28;20370;-63
2023/04/24 14:59:44;;;;;;;;;;;;;;;;;;5053286;28;20365;-62
2023/04/24 15:02:11;;;;;;;;;;;;;;;;;;5049555;28;19925;-63
2023/04/24 15:04:38;;;;;;;;;;;;;;;;;;5052053;28;19924;-64
2023/04/24 15:07:05;;;;;;;;;;;;;;;;;;5044942;28;20354;-64
2023/04/24 15:09:32;;;;;;;;;;;;;;;;;;5043081;28;20011;-63
2023/04/24 15:11:59;;;;;;;;;;;;;;;;;;5043913;28;19924;-62
2023/04/24 15:14:26;;;;;;;;;;;;;;;;;;5043235;28;19925;-63
2023/04/24 15:16:53;;;;;;;;;;;;;;;;;;5040999;28;19929;-62
2023/04/24 15:19:20;;;;;;;;;;;;;;;;;;5041365;28;19925;-66
2023/04/24 15:21:47;;;;;;;;;;;;;;;;;;5043398;28;19951;-65
2023/04/24 15:24:13;;;;;;;;;;;;;;;;;;5041700;28;19933;-65
2023/04/24 15:26:40;;;;;;;;;;;;;;;;;;5040370;28;19925;-67
2023/04/24 15:29:07;;;;;;;;;;;;;;;;;;5046772;28;19982;-67
2023/04/24 15:31:34;;;;;;;;;;;;;;;;;;5048103;28;19924;-67
2023/04/24 15:34:01;;;;;;;;;;;;;;;;;;5050462;28;19928;-66
2023/04/24 15:36:28;;;;;;;;;;;;;;;;;;5044212;28;19925;-66
2023/04/24 15:38:54;;;;;;;;;;;;;;;;;;5045945;28;19933;-65
2023/04/24 15:41:21;;;;;;;;;;;;;;;;;;5045147;28;20343;-65
2023/04/24 15:43:48;;;;;;;;;;;;;;;;;;5040805;28;19994;-65
2023/04/24 15:46:15;;;;;;;;;;;;;;;;;;5042673;28;19925;-65
2023/04/24 15:48:42;;;;;;;;;;;;;;;;;;5040834;28;19925;-59
2023/04/24 15:51:09;;;;;;;;;;;;;;;;;;5040061;28;19929;-61
2023/04/24 15:53:36;;;;;;;;;;;;;;;;;;5040867;28;19925;-61
2023/04/24 15:56:03;;;;;;;;;;;;;;;;;;5040753;28;19925;-61
2023/04/24 15:58:29;;;;;;;;;;;;;;;;;;5045926;28;19975;-58
2023/04/24 16:00:56;;;;;;;;;;;;;;;;;;5042566;28;19924;-60
2023/04/24 16:03:23;;;;;;;;;;;;;;;;;;5047913;28;19932;-59
2023/04/24 16:05:50;;;;;;;;;;;;;;;;;;5044941;28;19986;-56
2023/04/24 16:08:17;;;;;;;;;;;;;;;;;;5039775;28;19972;-58
2023/04/24 16:10:45;;;;;;;;;;;;;;;;;;5043592;28;20078;-61
2023/04/24 16:13:12;;;;;;;;;;;;;;;;;;5041504;28;19932;-59
2023/04/24 16:15:40;;;;;;;;;;;;;;;;;;5040023;28;19925;-60
2023/04/24 16:18:06;;;;;;;;;;;;;;;;;;5041265;28;19977;-60
2023/04/24 16:20:33;;;;;;;;;;;;;;;;;;5042300;28;19937;-60
2023/04/24 16:23:00;;;;;;;;;;;;;;;;;;5031179;28;19933;-60
2023/04/24 16:25:27;;;;;;;;;;;;;;;;;;5034749;28;19925;-60
2023/04/24 16:27:54;;;;;;;;;;;;;;;;;;5039824;28;19983;-60
2023/04/24 16:30:21;;;;;;;;;;;;;;;;;;5039864;28;19925;-59
2023/04/24 16:32:48;;;;;;;;;;;;;;;;;;5046250;28;19936;-61
2023/04/24 16:35:15;;;;;;;;;;;;;;;;;;5051826;28;19929;-62
2023/04/24 16:37:42;;;;;;;;;;;;;;;;;;5046800;28;19925;-61
2023/04/24 16:40:11;;;;;;;;;;;;;;;;;;5043721;28;19925;-61
2023/04/24 16:42:37;;;;;;;;;;;;;;;;;;5043750;28;20372;-60